• Join FlightAware (Why Join?)
  • Login
  • US Flag 
09:42PM EDT


 

Airport Tracker/Info


-or-


 

Live Flight TrackerFlight Track Log ✈ SWA2139 ✈ 03-May-2013 ✈ KAUS - KELP

Flight Track Log - Related Links

Times and Time Zones

All times are in EDT time to prevent confusion due to time zone crossing. See the SWA2139 flight status page for this flight to view local times or setup timezone preferences in your user account.

Time Position Orientation Groundspeed Altitude Reporting Facility
EDT Latitude Longitude Course Direction KTS MPH feet Rate Location/Type
08:35AM 30.3178 -97.6908 278° West 206 237 6,100  Level Houston Center
08:36AM 30.3842 -97.6961 356° North 230 265 9,900 2,880 Climbing Houston Center
08:37AM 30.4453 -97.7328 333° Northwest 263 303 12,100 2,580 Climbing Houston Center
08:38AM 30.4542 -97.8378 276° West 322 371 15,300 2,880 Climbing Houston Center
08:39AM 30.4167 -97.9288 270° West  Level FlightAware Approximate
08:39AM 30.4675 -97.9436 278° West 328 377 18,100  Level Houston Center
08:40AM 30.4214 -98.0401 278° West  Level FlightAware Approximate
08:40AM 30.4911 -98.0519 284° West 340 391 20,800  Level Houston Center
08:41AM 30.5114 -98.1644 282° West 350 403 23,400 2,220 Climbing Houston Center
08:42AM 30.5311 -98.2819 281° West 363 418 25,400 2,040 Climbing Houston Center
08:43AM 30.5544 -98.4242 281° West 377 434 27,600 2,400 Climbing Houston Center
08:44AM 30.5747 -98.5442 281° West 378 435 30,400 2,400 Climbing Houston Center
08:45AM 30.5950 -98.6572 282° West 359 413 32,600 1,800 Climbing Houston Center
08:46AM 30.6136 -98.7703 281° West 355 409 34,100 1,620 Climbing Houston Center
08:47AM 30.6328 -98.8822 281° West 350 403 36,000 900 Climbing Houston Center
08:48AM 30.6533 -98.9914 282° West 344 396 36,000  Level Houston Center
08:49AM 30.6703 -99.0997 280° West 340 391 36,000  Level Houston Center
08:50AM 30.6875 -99.2019 281° West 339 390 36,000  Level Houston Center
08:51AM 30.7056 -99.3069 281° West 333 383 36,000  Level Houston Center
08:52AM 30.7256 -99.4317 281° West 330 380 36,000  Level Houston Center
08:53AM 30.7425 -99.5347 281° West 328 377 36,000  Level Houston Center
08:54AM 30.7606 -99.6375 282° West 327 376 36,000  Level Houston Center
08:55AM 30.7775 -99.7439 281° West 333 383 36,000  Level Houston Center
08:56AM 30.7950 -99.8506 281° West 337 388 36,000  Level Houston Center
08:57AM 30.8119 -99.9589 280° West 341 392 36,000  Level Houston Center
08:58AM 30.8294 -100.0669 281° West 342 394 36,000  Level Houston Center
08:59AM 30.8503 -100.1956 281° West 340 391 36,000  Level Houston Center
09:00AM 30.8667 -100.3006 280° West 335 386 36,000  Level Houston Center
09:01AM 30.8836 -100.4078 280° West 339 390 36,000  Level Houston Center
09:02AM 30.9000 -100.5119 280° West 332 382 36,000  Level Houston Center
09:03AM 30.9169 -100.6194 280° West 337 388 36,000  Level Houston Center
09:04AM 30.9339 -100.7253 281° West 335 386 36,000  Level Houston Center
09:05AM 30.9489 -100.8331 279° West 340 391 36,000  Level Houston Center
09:06AM 30.9700 -100.9617 281° West 340 391 36,000  Level Houston Center
09:07AM 30.9856 -101.0708 279° West 342 394 36,000  Level Houston Center
09:08AM 31.0039 -101.1775 281° West 340 391 36,000  Level Houston Center
09:09AM 31.0206 -101.2850 280° West 339 390 36,000  Level Houston Center
09:10AM 31.0375 -101.3978 280° West 340 391 36,000  Level Houston Center
09:11AM 31.0417 -101.4406 276° West 337 388 36,000  Level Albuquerque Center
09:12AM 31.0586 -101.5503 280° West 341 392 36,000  Level Albuquerque Center
09:13AM 31.0736 -101.6594 279° West 342 394 36,000  Level Albuquerque Center
09:14AM 31.0900 -101.7692 280° West 342 394 36,000  Level Albuquerque Center
09:15AM 31.1092 -101.9008 280° West 343 395 36,000  Level Albuquerque Center
09:16AM 31.1217 -101.9986 279° West 354 407 36,000  Level Albuquerque Center
09:17AM 31.1378 -102.1075 280° West 346 398 36,000  Level Albuquerque Center
09:18AM 31.1539 -102.2194 280° West 346 398 36,000  Level Albuquerque Center
09:19AM 31.1706 -102.3289 280° West 345 397 36,000  Level Albuquerque Center
09:20AM 31.1861 -102.4411 279° West 348 400 36,000  Level Albuquerque Center
09:21AM 31.2039 -102.5742 279° West 345 397 36,000  Level Albuquerque Center
09:22AM 31.2200 -102.6850 280° West 343 395 36,000  Level Albuquerque Center
09:23AM 31.2350 -102.7978 279° West 346 398 36,000  Level Albuquerque Center
09:24AM 31.2506 -102.9094 279° West 348 400 36,000  Level Albuquerque Center
09:25AM 31.2661 -103.0228 279° West 351 404 36,000  Level Albuquerque Center
09:26AM 31.2811 -103.1350 279° West 351 404 36,000  Level Albuquerque Center
09:27AM 31.2961 -103.2492 279° West 354 407 36,000  Level Albuquerque Center
09:28AM 31.3119 -103.3608 279° West 351 404 36,000  Level Albuquerque Center
09:29AM 31.3264 -103.4739 279° West 351 404 36,000  Level Albuquerque Center
09:30AM 31.3414 -103.5867 279° West 352 405 36,000  Level Albuquerque Center
09:31AM 31.3556 -103.7003 278° West 351 404 36,000  Level Albuquerque Center
09:32AM 31.3711 -103.8197 279° West 352 405 36,000  Level Albuquerque Center
09:33AM 31.3853 -103.9331 278° West 352 405 36,000  Level Albuquerque Center
09:34AM 31.4014 -104.0458 280° West 353 406 36,000  Level Albuquerque Center
09:35AM 31.4153 -104.1597 278° West 354 407 36,000  Level Albuquerque Center
09:36AM 31.4294 -104.2728 278° West 354 407 36,000  Level Albuquerque Center
09:37AM 31.4433 -104.3864 278° West 354 407 36,000  Level Albuquerque Center
09:38AM 31.4581 -104.5011 279° West 356 410 36,000  Level Albuquerque Center
09:39AM 31.4725 -104.6383 277° West 357 411 36,000  Level Albuquerque Center
09:40AM 31.4836 -104.7528 277° West 356 410 36,000 -120 Level Albuquerque Center
09:41AM 31.4967 -104.8675 278° West 357 411 35,800 -1,680 Descending Albuquerque Center
09:42AM 31.5083 -104.9819 277° West 356 410 32,700 -3,300 Descending Albuquerque Center
09:43AM 31.5200 -105.0994 277° West 362 417 29,200 -3,420 Descending Albuquerque Center
09:44AM 31.5317 -105.2186 277° West 368 423 25,700 -3,120 Descending Albuquerque Center
09:45AM 31.5436 -105.3383 277° West 372 428 22,900 -3,060 Descending Albuquerque Center
09:46AM 31.5481 -105.4131 274° West 375 432 21,200 -2,940 Descending Albuquerque Center
09:46AM 31.5536 -105.4642 277° West 380 437 20,100 -2,160 Descending Albuquerque Center
09:47AM 31.5681 -105.5864 278° West 384 442 17,900 -2,880 Descending Albuquerque Center
09:48AM 31.6103 -105.7189 291° West 362 417 14,200 -3,240 Descending Albuquerque Center
09:49AM 31.6428 -105.8258 290° West 350 403 11,300 -1,920 Descending Albuquerque Center
09:50AM 31.6761 -105.9203 293° West 311 358 10,400 -900 Descending Albuquerque Center
09:51AM 31.7050 -106.0050 292° West 282 325 9,600 -1,080 Descending Albuquerque Center
09:52AM 31.7342 -106.0944 291° West 291 335 8,300 -1,200 Descending Albuquerque Center
09:54AM 31.7608 -106.1764 291° West 271 312 7,200 -1,020 Descending Albuquerque Center
09:55AM 31.7822 -106.2453 290° West 220 253 6,300 -1,140 Descending Albuquerque Center
09:56AM 31.7967 -106.3017 287° West 167 192 5,000 -1,020 Descending Albuquerque Center
09:57AM 31.8025 -106.3453 279° West 129 148 4,300 -720 Descending Albuquerque Center
09:59AM 31.8000 -106.3667 270° West  Level FlightAware Approximate
10:06AM 31.8072 -106.3764 270° West  Level Estimated
10:07AM 31.8072 -106.3764 270° West  Level Estimated
10:08AM 31.8072 -106.3764 270° West  Level Estimated
10:09AM 31.8072 -106.3764 270° West  Level Estimated